Henderson, Maryland
Current Conditions -  °F | °C
As of 4:58 AM on Tuesday 21 Oct 2014 (Local Time) from KDOV Reporting Station
Few Clouds Few Clouds  
Wind Chill: 55°   Ceiling: Unl
Heat Index: 55°   Visibility: 9mi
Dew Point: 51°   Wind: 6mph
Humidity: 87%   Direction: 150°SSE
Pressure: 29.85"   Gusts: NA
Location:  39.07°N, 75.77°W
Report Text: KDOV 210858Z AUTO 15005KT 9SM R19/5500FT FEW110 13/10 A2985 RMK AO2 RAB0832E0844 SLP111 P0000 60000 T01250104 57016
Loading
Personal Weather Stations






























Interactive Weather Map New forecast layout! Learn more

10-Day Weather Forecast

Advertisements
Track Severe Weather on mobile